Airfield :
LOGIN :

Register | Disclaimer

   EN    FR    IT 

 










Legend :    VFR   Marginal VFR   IFR   Intensive IFR   Very Intensive IFR
Visi :
Ceiling :
>= 8 km
>= 3000ft
5 to 8 km
1000 to 3000 ft
1500m to 5 km
500 to 1000 ft
800 to 1500m
200 to 500 ft
< 800m
< 200 ft
Symbols :   Thunderstorms  Fog  Heavy snow  Heavy precipitations  Wind > 20 kt
SIGMETs :     Misc.  Thunderstorms  Icing  Turbulence  Mountain Waves  Volcanic Ashes






- Airport Elevation : 13 ft
- IATA code : CEQ


LFMD - Cannes Mandelieu

CURRENT METAR :
  • 021030Z AUTO 15009KT 120V180 9999 SCT052 14/02 Q1015

EXPIRED METARs :
  • 021000Z AUTO 14007KT 100V180 9999 SCT054 13/02 Q1015
  • 020930Z AUTO 13006KT 080V180 9999 BKN052 14/02 Q1015
  • 020900Z AUTO 12005KT 020V180 9999 SCT052 13/00 Q1015
  • 020830Z AUTO 10005KT 030V150 9999 FEW056 13/01 Q1015
  • 020800Z AUTO 08005KT 010V160 CAVOK 12/00 Q1015

Expired Forecast.
ATIS : +33 4 93 48 73 23



MET'MAP, your aeronautical weather chart ! - Copyright ORBIFLY December 2007 - Disclaimer

ORBIFLY MET'MAP TEAM :

Programming & Development : Alexandra Zaïnal
Concept & original design : Baudouin d'Aumeries
Assistance for programming : Marc-Olivier Méhu
Technical & hardware support : Manuel Goepfert

Contact : metmap@orbifly.com




SOURCES & CREDITS :

   NOAA